createdAt,value
2019-04-28T00:01:23.747Z,1.70
2019-04-28T00:04:12.109Z,1.87
2019-04-28T00:06:41.815Z,2.27
2019-04-28T00:09:31.357Z,1.57
2019-04-28T00:12:21.023Z,2.30
2019-04-28T00:15:10.871Z,2.10
2019-04-28T00:18:19.182Z,1.60
2019-04-28T00:21:26.454Z,2.40
2019-04-28T00:24:33.839Z,1.80
2019-04-28T00:27:22.559Z,2.00
2019-04-28T00:29:52.065Z,2.60
2019-04-28T00:32:41.787Z,2.33
2019-04-28T00:35:31.881Z,1.90
2019-04-28T00:38:21.574Z,2.17
2019-04-28T00:40:52.824Z,2.00
2019-04-28T00:43:56.345Z,2.43
2019-04-28T00:49:09.079Z,2.00
2019-04-28T00:51:41.454Z,2.53
2019-04-28T00:54:31.731Z,2.77
2019-04-28T00:57:21.180Z,2.10
2019-04-28T00:59:57.473Z,2.30
2019-04-28T01:02:41.340Z,2.57
2019-04-28T01:05:31.190Z,2.20
2019-04-28T01:10:55.254Z,2.07
2019-04-28T01:13:36.884Z,2.00
2019-04-28T01:19:20.207Z,2.07
2019-04-28T01:22:02.582Z,1.83
2019-04-28T01:24:43.272Z,2.10
2019-04-28T01:27:50.552Z,1.60
2019-04-28T01:30:50.148Z,2.10
2019-04-28T01:33:50.186Z,2.10
2019-04-28T01:36:31.918Z,2.17
2019-04-28T01:42:11.530Z,1.83
2019-04-28T01:44:53.081Z,2.03
2019-04-28T01:47:34.507Z,2.27
2019-04-28T01:50:15.173Z,2.27
2019-04-28T01:52:56.670Z,2.07
2019-04-28T01:55:39.539Z,1.63
2019-04-28T01:58:20.397Z,2.13
2019-04-28T02:01:03.140Z,1.80
2019-04-28T02:03:44.448Z,2.13
2019-04-28T02:06:25.118Z,1.90
2019-04-28T02:09:06.660Z,1.80
2019-04-28T02:11:49.645Z,1.90
2019-04-28T02:14:30.790Z,2.10
2019-04-28T02:17:11.850Z,1.80
2019-04-28T02:19:52.531Z,1.87
2019-04-28T02:22:33.305Z,2.63
2019-04-28T02:25:14.960Z,2.10
2019-04-28T02:30:47.827Z,1.97
2019-04-28T02:33:21.728Z,2.10
2019-04-28T02:36:02.890Z,2.20
2019-04-28T02:38:34.269Z,1.47
2019-04-28T02:41:22.473Z,1.93
2019-04-28T02:44:10.947Z,1.70
2019-04-28T02:46:40.868Z,2.20
2019-04-28T02:52:52.696Z,1.77
2019-04-28T02:55:22.211Z,1.87
2019-04-28T02:58:13.239Z,2.07
2019-04-28T03:01:11.232Z,2.00
2019-04-28T03:03:51.090Z,2.10
2019-04-28T03:09:20.839Z,3.53
2019-04-28T03:12:02.322Z,2.40
2019-04-28T03:14:43.997Z,2.47
2019-04-28T03:17:25.543Z,1.90
2019-04-28T03:20:06.987Z,1.60
2019-04-28T03:22:51.049Z,2.10
2019-04-28T03:25:50.642Z,2.37
2019-04-28T03:28:51.516Z,1.90
2019-04-28T03:32:16.507Z,1.90
2019-04-28T03:37:03.645Z,1.90
2019-04-28T03:39:52.171Z,1.83
2019-04-28T03:42:21.982Z,2.10
2019-04-28T03:48:26.554Z,2.30
2019-04-28T03:51:14.976Z,1.90
2019-04-28T03:54:03.549Z,2.50
2019-04-28T03:56:53.689Z,2.30
2019-04-28T03:59:43.745Z,2.37
2019-04-28T04:02:32.433Z,2.13
2019-04-28T04:05:21.095Z,2.30
2019-04-28T04:08:02.013Z,2.07
2019-04-28T04:10:50.847Z,2.73
2019-04-28T04:13:38.085Z,2.37
2019-04-28T04:16:20.655Z,2.57
2019-04-28T04:21:44.445Z,2.47
2019-04-28T04:27:10.550Z,2.40
2019-04-28T04:29:51.274Z,2.40
2019-04-28T04:32:33.907Z,2.40
2019-04-28T04:35:03.288Z,2.43
2019-04-28T04:37:32.832Z,2.33
2019-04-28T04:40:02.384Z,2.20
2019-04-28T04:42:31.989Z,2.07
2019-04-28T04:45:01.510Z,2.47
2019-04-28T04:47:32.936Z,2.40
2019-04-28T04:50:02.227Z,2.40
2019-04-28T04:52:31.851Z,2.33
2019-04-28T04:55:01.558Z,2.37
2019-04-28T04:57:32.691Z,2.43
2019-04-28T05:00:03.838Z,2.20
2019-04-28T05:02:50.686Z,2.13
2019-04-28T05:05:40.658Z,2.60
2019-04-28T05:08:15.279Z,2.47
2019-04-28T05:10:41.353Z,2.53
2019-04-28T05:13:10.880Z,2.60
2019-04-28T05:15:40.322Z,2.93
2019-04-28T05:18:10.219Z,2.63
2019-04-28T05:20:40.475Z,3.07
2019-04-28T05:23:25.903Z,3.10
2019-04-28T05:25:55.445Z,3.13
2019-04-28T05:28:24.972Z,3.50
2019-04-28T05:30:54.498Z,2.80
2019-04-28T05:33:30.670Z,3.10
2019-04-28T05:36:02.612Z,3.20
2019-04-28T05:38:30.418Z,3.33
2019-04-28T05:41:02.766Z,3.00
2019-04-28T05:43:35.581Z,2.97
2019-04-28T05:46:05.250Z,2.60
2019-04-28T05:48:49.679Z,3.27
2019-04-28T05:51:22.859Z,2.80
2019-04-28T05:53:59.645Z,2.90
2019-04-28T05:56:40.608Z,2.80
2019-04-28T05:59:14.513Z,3.12
2019-04-28T06:02:00.730Z,3.10
2019-04-28T06:04:30.610Z,2.90
2019-04-28T06:07:06.427Z,3.00
2019-04-28T06:09:42.953Z,3.53
2019-04-28T06:12:13.830Z,2.90
2019-04-28T06:14:43.396Z,2.77
2019-04-28T06:17:12.938Z,3.10
2019-04-28T06:19:45.858Z,3.20
2019-04-28T06:22:17.701Z,3.20
2019-04-28T06:24:46.633Z,2.80
2019-04-28T06:27:16.122Z,3.53
2019-04-28T06:29:45.656Z,3.73
2019-04-28T06:32:15.307Z,3.22
2019-04-28T06:34:45.050Z,3.20
2019-04-28T06:37:15.208Z,3.75
2019-04-28T06:39:47.363Z,3.52
2019-04-28T06:42:18.067Z,3.33
2019-04-28T06:44:47.812Z,3.40
2019-04-28T06:47:17.325Z,3.10
2019-04-28T06:49:47.584Z,3.00
2019-04-28T06:52:17.262Z,3.30
2019-04-28T06:54:47.447Z,3.17
2019-04-28T06:57:17.239Z,3.33
2019-04-28T06:59:47.120Z,3.33
2019-04-28T07:02:16.888Z,3.50
2019-04-28T07:04:46.936Z,3.17
2019-04-28T07:07:16.859Z,2.90
2019-04-28T07:09:47.438Z,3.55
2019-04-28T07:12:17.296Z,3.07
2019-04-28T07:14:46.966Z,3.10
2019-04-28T07:17:16.688Z,2.60
2019-04-28T07:19:49.811Z,3.10
2019-04-28T07:22:23.596Z,3.10
2019-04-28T07:24:53.166Z,3.33
2019-04-28T07:27:22.828Z,3.23
2019-04-28T07:29:53.076Z,3.37
2019-04-28T07:32:22.938Z,2.90
2019-04-28T07:34:52.444Z,3.20
2019-04-28T07:37:22.487Z,3.07
2019-04-28T07:39:52.153Z,3.10
2019-04-28T07:42:21.933Z,3.90
2019-04-28T07:44:54.978Z,2.83
2019-04-28T07:47:24.995Z,3.47
2019-04-28T07:49:54.529Z,3.30
2019-04-28T07:52:38.975Z,3.10
2019-04-28T07:55:08.614Z,3.20
2019-04-28T07:57:38.558Z,3.30
2019-04-28T08:00:10.293Z,3.23
2019-04-28T08:02:39.838Z,3.23
2019-04-28T08:05:09.644Z,3.43
2019-04-28T08:07:39.311Z,3.30
2019-04-28T08:10:09.265Z,3.07
2019-04-28T08:12:39.121Z,3.37
2019-04-28T08:15:09.259Z,3.60
2019-04-28T08:17:39.105Z,2.90
2019-04-28T08:20:08.973Z,3.23
2019-04-28T08:22:38.504Z,2.90
2019-04-28T08:25:09.749Z,3.90
2019-04-28T08:27:39.638Z,2.90
2019-04-28T08:30:10.316Z,2.90
2019-04-28T08:33:05.415Z,3.13
2019-04-28T08:35:37.351Z,2.80
2019-04-28T08:38:07.046Z,2.90
2019-04-28T08:40:37.752Z,3.10
2019-04-28T08:43:07.293Z,2.80
2019-04-28T08:45:36.727Z,2.80
2019-04-28T08:48:06.370Z,3.17
2019-04-28T08:50:35.963Z,2.73
2019-04-28T08:53:05.570Z,3.00
2019-04-28T08:55:35.718Z,2.53
2019-04-28T08:58:05.237Z,2.97
2019-04-28T09:00:35.244Z,3.03
2019-04-28T09:03:05.357Z,2.90
2019-04-28T09:05:35.107Z,2.90
2019-04-28T09:08:04.664Z,2.60
2019-04-28T09:10:34.767Z,2.80
2019-04-28T09:13:04.380Z,3.57
2019-04-28T09:15:33.932Z,2.87
2019-04-28T09:18:03.470Z,2.70
2019-04-28T09:20:33.005Z,2.77
2019-04-28T09:23:02.468Z,2.63
2019-04-28T09:25:32.442Z,3.17
2019-04-28T09:28:02.015Z,3.03
2019-04-28T09:30:31.673Z,2.90
2019-04-28T09:33:01.211Z,3.17
2019-04-28T09:35:31.159Z,3.10
2019-04-28T09:38:00.667Z,2.83
2019-04-28T09:40:30.139Z,2.93
2019-04-28T09:43:22.493Z,2.70
2019-04-28T09:46:13.738Z,2.70
2019-04-28T09:48:43.316Z,2.50
2019-04-28T09:51:13.054Z,3.00
2019-04-28T09:53:42.595Z,2.60
2019-04-28T09:56:12.127Z,2.90
2019-04-28T09:58:41.669Z,2.83
2019-04-28T10:01:11.337Z,2.20
2019-04-28T10:03:40.891Z,2.80
2019-04-28T10:06:10.392Z,3.10
2019-04-28T10:08:39.970Z,2.50
2019-04-28T10:11:09.439Z,2.70
2019-04-28T10:13:38.930Z,2.80
2019-04-28T10:16:08.425Z,2.83
2019-04-28T10:18:38.114Z,3.00
2019-04-28T10:21:07.679Z,2.43
2019-04-28T10:23:37.235Z,2.27
2019-04-28T10:26:06.856Z,2.97
2019-04-28T10:28:36.548Z,2.90
2019-04-28T10:31:07.379Z,2.90
2019-04-28T10:33:38.600Z,2.80
2019-04-28T10:36:08.071Z,2.80
2019-04-28T10:47:09.045Z,2.10
2019-04-28T10:49:57.603Z,2.73
2019-04-28T10:52:46.098Z,1.80
2019-04-28T10:55:34.562Z,1.30
2019-04-28T10:58:23.034Z,1.50
2019-04-28T11:00:52.475Z,1.60
2019-04-28T11:03:21.846Z,1.60
2019-04-28T11:05:51.310Z,2.50
2019-04-28T11:11:44.236Z,2.00
2019-04-28T11:14:25.565Z,2.80
2019-04-28T11:16:55.342Z,1.93
2019-04-28T11:19:46.979Z,2.30
2019-04-28T11:22:35.390Z,2.20
2019-04-28T11:25:38.134Z,2.07
2019-04-28T11:28:16.999Z,2.37
2019-04-28T11:31:05.507Z,2.40
2019-04-28T11:34:15.751Z,1.97
2019-04-28T11:37:16.719Z,1.63
2019-04-28T11:42:58.414Z,2.37
2019-04-28T11:45:28.979Z,1.47
2019-04-28T11:48:21.591Z,1.80
2019-04-28T11:51:10.153Z,1.80
2019-04-28T11:54:00.840Z,1.60
2019-04-28T11:56:40.761Z,1.90
2019-04-28T11:59:01.812Z,1.60
2019-04-28T12:01:53.107Z,1.37
2019-04-28T12:05:01.117Z,1.70
2019-04-28T12:07:49.762Z,1.62
2019-04-28T12:11:16.181Z,1.45
2019-04-28T12:14:02.150Z,1.23
2019-04-28T12:17:09.658Z,1.30
2019-04-28T12:23:20.336Z,1.22
2019-04-28T12:26:08.927Z,1.20
2019-04-28T12:28:57.498Z,1.60
2019-04-28T12:32:05.047Z,1.53
2019-04-28T12:34:53.551Z,1.27
2019-04-28T12:37:23.120Z,1.32
2019-04-28T12:40:11.756Z,1.52
2019-04-28T12:43:01.879Z,1.37
2019-04-28T12:45:50.447Z,1.15
2019-04-28T12:48:39.002Z,1.37
2019-04-28T12:51:28.057Z,1.43
2019-04-28T12:57:26.860Z,1.93
2019-04-28T13:00:34.771Z,1.50
2019-04-28T13:06:37.774Z,1.53
2019-04-28T13:09:26.386Z,1.53
2019-04-28T13:12:29.164Z,1.50
2019-04-28T13:14:59.564Z,1.60
2019-04-28T13:17:40.890Z,1.73
2019-04-28T13:20:21.998Z,2.20
2019-04-28T13:23:08.943Z,1.42
2019-04-28T13:25:42.518Z,1.90
2019-04-28T13:28:31.074Z,1.70
2019-04-28T13:31:19.586Z,11.97
2019-04-28T13:43:14.410Z,1.70
2019-04-28T13:46:21.988Z,1.80
2019-04-28T13:55:20.713Z,2.47
2019-04-28T13:58:12.726Z,2.15
2019-04-28T14:01:01.628Z,1.92
2019-04-28T14:10:48.256Z,1.87
2019-04-28T14:13:30.278Z,1.50
2019-04-28T14:16:00.245Z,1.55
2019-04-28T14:18:48.148Z,1.87
2019-04-28T14:21:37.037Z,1.65
2019-04-28T14:24:25.623Z,1.40
2019-04-28T14:27:14.018Z,2.15
2019-04-28T14:30:02.483Z,1.65
2019-04-28T14:32:50.952Z,1.22
2019-04-28T14:35:39.370Z,1.20
2019-04-28T14:38:28.375Z,1.45
2019-04-28T14:41:16.771Z,1.02
2019-04-28T14:44:05.384Z,1.20
2019-04-28T14:46:53.959Z,0.95
2019-04-28T14:49:42.405Z,1.00
2019-04-28T14:52:30.870Z,1.20
2019-04-28T14:55:19.387Z,1.15
2019-04-28T14:58:07.981Z,1.05
2019-04-28T15:10:15.509Z,0.80
2019-04-28T15:12:56.750Z,1.10
2019-04-28T15:15:38.768Z,1.17
2019-04-28T15:18:19.604Z,1.65
2019-04-28T15:21:01.295Z,1.12
2019-04-28T15:23:42.397Z,1.22
2019-04-28T15:26:23.847Z,1.50
2019-04-28T15:29:05.388Z,1.57
2019-04-28T15:31:46.621Z,1.57
2019-04-28T15:34:27.643Z,1.60
2019-04-28T15:37:10.246Z,1.02
2019-04-28T15:39:51.536Z,1.30
2019-04-28T15:45:18.768Z,1.30
2019-04-28T15:53:34.216Z,1.35
2019-04-28T15:56:44.844Z,1.30
2019-04-28T16:04:47.224Z,1.30
2019-04-28T16:07:31.582Z,1.20
2019-04-28T16:10:13.696Z,1.20
2019-04-28T16:13:02.913Z,1.30
2019-04-28T16:21:24.888Z,1.70
2019-04-28T16:24:06.146Z,1.57
2019-04-28T16:26:47.521Z,1.30
2019-04-28T16:29:19.709Z,1.30
2019-04-28T16:32:09.794Z,1.30
2019-04-28T16:34:58.729Z,1.25
2019-04-28T16:37:47.294Z,1.00
2019-04-28T16:40:55.172Z,1.20
2019-04-28T16:46:19.647Z,1.20
2019-04-28T16:49:08.583Z,0.90
2019-04-28T16:51:57.319Z,1.30
2019-04-28T16:58:02.120Z,1.25
2019-04-28T17:03:48.477Z,1.72
2019-04-28T17:09:27.927Z,1.35
2019-04-28T17:12:08.807Z,1.40
2019-04-28T17:14:49.844Z,1.00
2019-04-28T17:20:19.118Z,1.47
2019-04-28T17:23:00.674Z,1.30
2019-04-28T17:25:42.359Z,1.30
2019-04-28T17:28:24.058Z,1.50
2019-04-28T17:31:05.624Z,1.52
2019-04-28T17:33:47.338Z,1.75
2019-04-28T17:36:28.809Z,1.50
2019-04-28T17:39:11.367Z,1.37
2019-04-28T17:46:36.514Z,1.55
2019-04-28T17:47:42.131Z,1.75
2019-04-28T18:05:23.783Z,1.50
2019-04-28T18:08:20.924Z,1.23
2019-04-28T18:11:02.850Z,1.40
2019-04-28T18:13:43.939Z,1.43
2019-04-28T18:16:43.585Z,1.33
2019-04-28T18:22:12.029Z,1.50
2019-04-28T18:27:44.787Z,1.10
2019-04-28T18:30:27.857Z,1.30
2019-04-28T18:33:28.360Z,1.00
2019-04-28T18:36:15.298Z,1.20
2019-04-28T18:42:14.758Z,1.10
2019-04-28T18:44:55.847Z,1.30
2019-04-28T18:47:37.143Z,1.17
2019-04-28T18:50:17.953Z,1.47
2019-04-28T18:52:59.485Z,1.40
2019-04-28T18:55:40.184Z,1.20
2019-04-28T18:58:21.654Z,1.27
2019-04-28T19:01:22.148Z,1.40
2019-04-28T19:04:03.066Z,1.23
2019-04-28T19:06:44.452Z,1.43
2019-04-28T19:09:32.905Z,1.20
2019-04-28T19:12:40.360Z,1.50
2019-04-28T19:15:47.791Z,1.60
2019-04-28T19:21:33.199Z,2.00
2019-04-28T19:24:02.798Z,2.07
2019-04-28T19:26:51.338Z,1.80
2019-04-28T19:29:39.895Z,1.80
2019-04-28T19:32:28.379Z,1.60
2019-04-28T19:35:16.928Z,1.80
2019-04-28T19:38:05.417Z,2.00
2019-04-28T19:40:53.971Z,2.13
2019-04-28T19:43:42.563Z,1.80
2019-04-28T19:46:31.104Z,1.97
2019-04-28T19:49:19.701Z,1.80
2019-04-28T19:52:08.279Z,1.83
2019-04-28T19:55:15.964Z,1.97
2019-04-28T20:01:31.549Z,2.03
2019-04-28T20:04:12.543Z,1.50
2019-04-28T20:06:54.090Z,1.37
2019-04-28T20:09:34.667Z,1.60
2019-04-28T20:12:16.152Z,1.37
2019-04-28T20:14:57.612Z,1.40
2019-04-28T20:17:38.497Z,1.30
2019-04-28T20:20:20.131Z,1.10
2019-04-28T20:23:01.537Z,1.40
2019-04-28T20:25:43.067Z,1.40
2019-04-28T20:28:24.522Z,1.30
2019-04-28T20:31:05.997Z,1.30
2019-04-28T20:33:47.169Z,1.10
2019-04-28T20:39:31.178Z,1.20
2019-04-28T20:42:31.056Z,1.30
2019-04-28T20:45:13.479Z,1.30
2019-04-28T20:47:54.963Z,1.17
2019-04-28T20:50:35.705Z,1.27
2019-04-28T20:53:19.362Z,1.20
2019-04-28T20:55:59.746Z,1.30
2019-04-28T20:58:40.564Z,1.40
2019-04-28T21:01:21.798Z,0.97
2019-04-28T21:04:03.084Z,0.87
2019-04-28T21:06:44.077Z,1.10
2019-04-28T21:09:25.657Z,1.10
2019-04-28T21:12:06.600Z,1.20
2019-04-28T21:14:47.932Z,1.20
2019-04-28T21:17:29.460Z,1.30
2019-04-28T21:20:11.076Z,1.30
2019-04-28T21:22:51.987Z,1.40
2019-04-28T21:25:32.856Z,1.30
2019-04-28T21:28:13.626Z,1.50
2019-04-28T21:30:55.311Z,1.60
2019-04-28T21:33:36.599Z,1.37
2019-04-28T21:36:18.087Z,1.50
2019-04-28T21:38:59.313Z,1.37
2019-04-28T21:41:34.254Z,1.80
2019-04-28T21:44:41.674Z,1.73
2019-04-28T21:53:33.678Z,1.70
2019-04-28T21:56:03.219Z,1.40
2019-04-28T21:58:44.303Z,1.73
2019-04-28T22:01:27.695Z,1.40
2019-04-28T22:04:08.892Z,1.30
2019-04-28T22:06:50.399Z,1.50
2019-04-28T22:09:31.084Z,1.23
2019-04-28T22:12:12.707Z,1.30
2019-04-28T22:14:54.198Z,1.40
2019-04-28T22:17:35.481Z,1.40
2019-04-28T22:20:16.859Z,1.30
2019-04-28T22:22:59.175Z,1.30
2019-04-28T22:25:39.793Z,1.50
2019-04-28T22:28:21.332Z,1.30
2019-04-28T22:31:02.035Z,1.20
2019-04-28T22:33:43.825Z,1.23
2019-04-28T22:36:25.247Z,1.50
2019-04-28T22:39:06.913Z,1.10
2019-04-28T22:41:47.901Z,1.40
2019-04-28T22:44:29.166Z,1.23
2019-04-28T22:47:11.334Z,1.13
2019-04-28T22:52:35.340Z,1.20
2019-04-28T22:55:21.078Z,1.60
2019-04-28T22:58:22.302Z,1.40
2019-04-28T23:01:10.949Z,1.40
2019-04-28T23:06:57.363Z,1.63
2019-04-28T23:09:26.907Z,1.40
2019-04-28T23:12:15.413Z,1.53
2019-04-28T23:15:22.938Z,1.30
2019-04-28T23:18:11.484Z,1.20
2019-04-28T23:24:13.999Z,1.40
2019-04-28T23:27:40.762Z,1.20
2019-04-28T23:30:53.739Z,1.37
2019-04-28T23:33:43.765Z,1.80
2019-04-28T23:36:51.501Z,1.80
2019-04-28T23:39:40.491Z,1.57
2019-04-28T23:45:44.321Z,1.83
2019-04-28T23:48:53.421Z,1.97
2019-04-28T23:51:39.030Z,1.80
2019-04-28T23:54:27.537Z,1.60
2019-04-28T23:57:26.539Z,2.13
